sensor_id;sensor_type;location;lat;lon;timestamp;P1;durP1;ratioP1;P2;durP2;ratioP2
13455;SDS011;6800;50.940;6.940;2022-07-01T00:03:33;8.43;;;5.73;;
13455;SDS011;6800;50.940;6.940;2022-07-01T00:07:34;9.57;;;6.97;;
13455;SDS011;6800;50.940;6.940;2022-07-01T00:11:35;6.70;;;5.83;;
13455;SDS011;6800;50.940;6.940;2022-07-01T00:15:35;10.87;;;7.07;;
13455;SDS011;6800;50.940;6.940;2022-07-01T00:19:35;10.20;;;6.60;;
13455;SDS011;6800;50.940;6.940;2022-07-01T00:23:36;7.47;;;6.63;;
13455;SDS011;6800;50.940;6.940;2022-07-01T00:27:37;7.03;;;5.93;;
13455;SDS011;6800;50.940;6.940;2022-07-01T00:31:41;6.77;;;6.00;;
13455;SDS011;6800;50.940;6.940;2022-07-01T00:35:41;8.80;;;5.83;;
13455;SDS011;6800;50.940;6.940;2022-07-01T00:39:41;10.23;;;6.30;;
13455;SDS011;6800;50.940;6.940;2022-07-01T00:43:42;7.60;;;6.43;;
13455;SDS011;6800;50.940;6.940;2022-07-01T00:47:43;7.83;;;5.97;;
13455;SDS011;6800;50.940;6.940;2022-07-01T00:51:44;11.23;;;7.03;;
13455;SDS011;6800;50.940;6.940;2022-07-01T00:55:45;10.37;;;6.83;;
13455;SDS011;6800;50.940;6.940;2022-07-01T00:59:45;8.10;;;6.73;;
13455;SDS011;6800;50.940;6.940;2022-07-01T01:03:46;9.73;;;6.70;;
13455;SDS011;6800;50.940;6.940;2022-07-01T01:07:47;12.07;;;7.70;;
13455;SDS011;6800;50.940;6.940;2022-07-01T01:11:48;8.13;;;6.30;;
13455;SDS011;6800;50.940;6.940;2022-07-01T01:15:50;10.37;;;7.07;;
13455;SDS011;6800;50.940;6.940;2022-07-01T01:19:50;11.33;;;8.00;;
13455;SDS011;6800;50.940;6.940;2022-07-01T01:23:51;9.13;;;7.07;;
13455;SDS011;6800;50.940;6.940;2022-07-01T01:27:52;9.10;;;6.73;;
13455;SDS011;6800;50.940;6.940;2022-07-01T01:31:52;6.77;;;6.07;;
13455;SDS011;6800;50.940;6.940;2022-07-01T01:35:53;9.47;;;6.50;;
13455;SDS011;6800;50.940;6.940;2022-07-01T01:39:53;8.60;;;7.17;;
13455;SDS011;6800;50.940;6.940;2022-07-01T01:43:54;7.90;;;6.73;;
13455;SDS011;6800;50.940;6.940;2022-07-01T01:47:54;8.47;;;7.03;;
13455;SDS011;6800;50.940;6.940;2022-07-01T01:51:56;9.67;;;7.13;;
13455;SDS011;6800;50.940;6.940;2022-07-01T01:55:57;7.97;;;6.40;;
13455;SDS011;6800;50.940;6.940;2022-07-01T01:59:58;7.57;;;5.57;;
13455;SDS011;6800;50.940;6.940;2022-07-01T02:03:58;5.97;;;5.37;;
13455;SDS011;6800;50.940;6.940;2022-07-01T02:07:59;5.70;;;5.00;;
13455;SDS011;6800;50.940;6.940;2022-07-01T02:11:59;5.83;;;4.77;;
13455;SDS011;6800;50.940;6.940;2022-07-01T02:15:59;4.43;;;4.03;;
13455;SDS011;6800;50.940;6.940;2022-07-01T02:20:00;5.47;;;4.23;;
13455;SDS011;6800;50.940;6.940;2022-07-01T02:24:00;3.97;;;3.63;;
13455;SDS011;6800;50.940;6.940;2022-07-01T02:28:00;5.40;;;3.60;;
13455;SDS011;6800;50.940;6.940;2022-07-01T02:32:01;6.23;;;3.80;;
13455;SDS011;6800;50.940;6.940;2022-07-01T02:36:02;4.97;;;3.67;;
13455;SDS011;6800;50.940;6.940;2022-07-01T02:40:03;4.50;;;4.00;;
13455;SDS011;6800;50.940;6.940;2022-07-01T02:44:04;5.23;;;4.10;;
13455;SDS011;6800;50.940;6.940;2022-07-01T02:48:04;5.10;;;3.70;;
13455;SDS011;6800;50.940;6.940;2022-07-01T02:52:05;3.07;;;2.63;;
13455;SDS011;6800;50.940;6.940;2022-07-01T02:56:05;2.73;;;2.40;;
13455;SDS011;6800;50.940;6.940;2022-07-01T03:00:09;4.60;;;2.37;;
13455;SDS011;6800;50.940;6.940;2022-07-01T03:04:11;4.43;;;2.30;;
13455;SDS011;6800;50.940;6.940;2022-07-01T03:08:11;3.87;;;1.90;;
13455;SDS011;6800;50.940;6.940;2022-07-01T03:12:12;3.03;;;1.93;;
13455;SDS011;6800;50.940;6.940;2022-07-01T03:16:25;3.93;;;2.33;;
13455;SDS011;6800;50.940;6.940;2022-07-01T03:20:25;4.10;;;2.13;;
13455;SDS011;6800;50.940;6.940;2022-07-01T03:24:26;3.73;;;2.30;;
13455;SDS011;6800;50.940;6.940;2022-07-01T03:28:26;2.97;;;1.90;;
13455;SDS011;6800;50.940;6.940;2022-07-01T03:32:26;2.20;;;2.00;;
13455;SDS011;6800;50.940;6.940;2022-07-01T03:36:27;3.10;;;2.50;;
13455;SDS011;6800;50.940;6.940;2022-07-01T03:40:27;2.47;;;2.27;;
13455;SDS011;6800;50.940;6.940;2022-07-01T03:44:27;3.73;;;2.70;;
13455;SDS011;6800;50.940;6.940;2022-07-01T03:48:28;3.60;;;2.07;;
13455;SDS011;6800;50.940;6.940;2022-07-01T03:52:28;4.33;;;2.73;;
13455;SDS011;6800;50.940;6.940;2022-07-01T03:56:28;3.80;;;2.27;;
13455;SDS011;6800;50.940;6.940;2022-07-01T04:00:28;2.57;;;2.37;;
13455;SDS011;6800;50.940;6.940;2022-07-01T04:04:33;4.40;;;2.03;;
13455;SDS011;6800;50.940;6.940;2022-07-01T04:08:34;3.67;;;2.30;;
13455;SDS011;6800;50.940;6.940;2022-07-01T04:12:34;4.60;;;2.73;;
13455;SDS011;6800;50.940;6.940;2022-07-01T04:16:35;3.07;;;2.60;;
13455;SDS011;6800;50.940;6.940;2022-07-01T04:20:35;4.10;;;2.50;;
13455;SDS011;6800;50.940;6.940;2022-07-01T04:24:36;3.83;;;2.47;;
13455;SDS011;6800;50.940;6.940;2022-07-01T04:28:36;5.00;;;2.70;;
13455;SDS011;6800;50.940;6.940;2022-07-01T04:32:38;5.90;;;2.10;;
13455;SDS011;6800;50.940;6.940;2022-07-01T04:36:38;4.27;;;2.57;;
13455;SDS011;6800;50.940;6.940;2022-07-01T04:40:44;3.50;;;2.20;;
13455;SDS011;6800;50.940;6.940;2022-07-01T04:45:05;2.90;;;2.10;;
13455;SDS011;6800;50.940;6.940;2022-07-01T04:49:06;3.87;;;1.50;;
13455;SDS011;6800;50.940;6.940;2022-07-01T04:53:07;2.23;;;1.70;;
13455;SDS011;6800;50.940;6.940;2022-07-01T04:57:07;2.83;;;1.70;;
13455;SDS011;6800;50.940;6.940;2022-07-01T05:01:08;3.40;;;1.60;;
13455;SDS011;6800;50.940;6.940;2022-07-01T05:05:09;3.30;;;1.80;;
13455;SDS011;6800;50.940;6.940;2022-07-01T05:09:09;2.10;;;1.87;;
13455;SDS011;6800;50.940;6.940;2022-07-01T05:13:09;2.23;;;1.63;;
13455;SDS011;6800;50.940;6.940;2022-07-01T05:17:10;5.23;;;1.60;;
13455;SDS011;6800;50.940;6.940;2022-07-01T05:21:10;3.83;;;1.83;;
13455;SDS011;6800;50.940;6.940;2022-07-01T05:25:29;4.03;;;1.63;;
13455;SDS011;6800;50.940;6.940;2022-07-01T05:29:29;4.23;;;1.80;;
13455;SDS011;6800;50.940;6.940;2022-07-01T05:33:30;3.73;;;1.90;;
13455;SDS011;6800;50.940;6.940;2022-07-01T05:37:30;3.17;;;1.67;;
13455;SDS011;6800;50.940;6.940;2022-07-01T05:41:30;4.87;;;1.70;;
13455;SDS011;6800;50.940;6.940;2022-07-01T05:45:31;3.80;;;1.70;;
13455;SDS011;6800;50.940;6.940;2022-07-01T05:49:31;4.53;;;1.63;;
13455;SDS011;6800;50.940;6.940;2022-07-01T05:53:32;4.23;;;1.50;;
13455;SDS011;6800;50.940;6.940;2022-07-01T05:57:32;6.57;;;2.13;;
13455;SDS011;6800;50.940;6.940;2022-07-01T06:01:32;3.80;;;2.00;;
13455;SDS011;6800;50.940;6.940;2022-07-01T06:05:32;2.13;;;1.57;;
13455;SDS011;6800;50.940;6.940;2022-07-01T06:09:38;4.40;;;2.00;;
13455;SDS011;6800;50.940;6.940;2022-07-01T06:13:39;3.97;;;1.90;;
13455;SDS011;6800;50.940;6.940;2022-07-01T06:17:40;3.78;;;1.73;;
13455;SDS011;6800;50.940;6.940;2022-07-01T06:21:41;3.33;;;1.50;;
13455;SDS011;6800;50.940;6.940;2022-07-01T06:25:41;5.03;;;1.58;;
13455;SDS011;6800;50.940;6.940;2022-07-01T06:29:42;5.22;;;1.95;;
13455;SDS011;6800;50.940;6.940;2022-07-01T06:33:42;6.53;;;3.25;;
13455;SDS011;6800;50.940;6.940;2022-07-01T06:37:42;4.90;;;1.83;;
13455;SDS011;6800;50.940;6.940;2022-07-01T06:41:43;3.85;;;1.10;;
13455;SDS011;6800;50.940;6.940;2022-07-01T06:45:43;3.30;;;1.13;;
13455;SDS011;6800;50.940;6.940;2022-07-01T06:49:45;3.47;;;1.20;;
13455;SDS011;6800;50.940;6.940;2022-07-01T06:53:45;4.22;;;1.50;;
13455;SDS011;6800;50.940;6.940;2022-07-01T06:57:46;4.68;;;1.52;;
13455;SDS011;6800;50.940;6.940;2022-07-01T07:01:47;3.83;;;1.52;;
13455;SDS011;6800;50.940;6.940;2022-07-01T07:05:47;2.63;;;1.27;;
13455;SDS011;6800;50.940;6.940;2022-07-01T07:09:48;3.97;;;1.30;;
13455;SDS011;6800;50.940;6.940;2022-07-01T07:13:48;5.47;;;1.42;;
13455;SDS011;6800;50.940;6.940;2022-07-01T07:17:48;2.40;;;1.20;;
13455;SDS011;6800;50.940;6.940;2022-07-01T07:21:49;2.28;;;1.40;;
13455;SDS011;6800;50.940;6.940;2022-07-01T07:25:49;3.33;;;1.50;;
13455;SDS011;6800;50.940;6.940;2022-07-01T07:29:49;3.22;;;1.67;;
13455;SDS011;6800;50.940;6.940;2022-07-01T07:33:50;3.85;;;1.48;;
13455;SDS011;6800;50.940;6.940;2022-07-01T07:37:50;3.80;;;2.13;;
13455;SDS011;6800;50.940;6.940;2022-07-01T07:41:50;2.67;;;1.63;;
13455;SDS011;6800;50.940;6.940;2022-07-01T07:45:50;3.15;;;1.50;;
13455;SDS011;6800;50.940;6.940;2022-07-01T07:49:51;1.77;;;1.40;;
13455;SDS011;6800;50.940;6.940;2022-07-01T07:53:51;7.78;;;1.80;;
13455;SDS011;6800;50.940;6.940;2022-07-01T07:57:52;3.78;;;1.55;;
13455;SDS011;6800;50.940;6.940;2022-07-01T08:01:52;1.77;;;1.38;;
13455;SDS011;6800;50.940;6.940;2022-07-01T08:05:52;1.80;;;1.30;;
13455;SDS011;6800;50.940;6.940;2022-07-01T08:09:53;4.63;;;2.28;;
13455;SDS011;6800;50.940;6.940;2022-07-01T08:13:53;5.75;;;1.73;;
13455;SDS011;6800;50.940;6.940;2022-07-01T08:17:53;4.55;;;2.30;;
13455;SDS011;6800;50.940;6.940;2022-07-01T08:21:54;3.38;;;2.10;;
13455;SDS011;6800;50.940;6.940;2022-07-01T08:25:54;5.68;;;2.78;;
13455;SDS011;6800;50.940;6.940;2022-07-01T08:29:55;6.03;;;3.40;;
13455;SDS011;6800;50.940;6.940;2022-07-01T08:33:56;5.13;;;2.85;;
13455;SDS011;6800;50.940;6.940;2022-07-01T08:37:57;9.20;;;2.65;;
13455;SDS011;6800;50.940;6.940;2022-07-01T08:41:58;5.82;;;2.60;;
13455;SDS011;6800;50.940;6.940;2022-07-01T08:45:59;2.95;;;1.75;;
13455;SDS011;6800;50.940;6.940;2022-07-01T08:50:01;4.63;;;1.90;;
13455;SDS011;6800;50.940;6.940;2022-07-01T08:54:01;2.97;;;1.48;;
13455;SDS011;6800;50.940;6.940;2022-07-01T08:58:02;5.47;;;1.77;;
13455;SDS011;6800;50.940;6.940;2022-07-01T09:02:03;2.25;;;1.88;;
13455;SDS011;6800;50.940;6.940;2022-07-01T09:06:05;3.22;;;1.80;;
13455;SDS011;6800;50.940;6.940;2022-07-01T09:10:15;4.55;;;2.05;;
13455;SDS011;6800;50.940;6.940;2022-07-01T09:14:27;1.80;;;1.60;;
13455;SDS011;6800;50.940;6.940;2022-07-01T09:18:29;3.60;;;1.58;;
13455;SDS011;6800;50.940;6.940;2022-07-01T09:22:29;2.90;;;1.80;;
13455;SDS011;6800;50.940;6.940;2022-07-01T09:26:31;3.53;;;1.77;;
13455;SDS011;6800;50.940;6.940;2022-07-01T09:30:31;4.35;;;1.70;;
13455;SDS011;6800;50.940;6.940;2022-07-01T09:34:35;3.35;;;1.55;;
13455;SDS011;6800;50.940;6.940;2022-07-01T09:38:45;3.22;;;1.95;;
13455;SDS011;6800;50.940;6.940;2022-07-01T09:42:47;5.82;;;2.10;;
13455;SDS011;6800;50.940;6.940;2022-07-01T09:46:51;3.78;;;1.80;;
13455;SDS011;6800;50.940;6.940;2022-07-01T09:50:53;3.33;;;1.70;;
13455;SDS011;6800;50.940;6.940;2022-07-01T09:54:54;3.92;;;2.08;;
13455;SDS011;6800;50.940;6.940;2022-07-01T09:58:54;4.65;;;2.10;;
13455;SDS011;6800;50.940;6.940;2022-07-01T10:02:54;2.33;;;1.50;;
13455;SDS011;6800;50.940;6.940;2022-07-01T10:06:58;2.05;;;1.48;;
13455;SDS011;6800;50.940;6.940;2022-07-01T10:15:41;2.95;;;1.60;;
13455;SDS011;6800;50.940;6.940;2022-07-01T10:19:42;2.28;;;1.83;;
13455;SDS011;6800;50.940;6.940;2022-07-01T10:23:43;2.80;;;1.33;;
13455;SDS011;6800;50.940;6.940;2022-07-01T10:27:44;4.07;;;2.25;;
13455;SDS011;6800;50.940;6.940;2022-07-01T10:31:44;3.35;;;1.70;;
13455;SDS011;6800;50.940;6.940;2022-07-01T10:35:48;5.03;;;1.80;;
13455;SDS011;6800;50.940;6.940;2022-07-01T10:40:01;5.18;;;1.40;;
13455;SDS011;6800;50.940;6.940;2022-07-01T10:44:04;2.67;;;1.60;;
13455;SDS011;6800;50.940;6.940;2022-07-01T10:48:22;4.15;;;1.63;;
13455;SDS011;6800;50.940;6.940;2022-07-01T10:52:24;3.65;;;1.50;;
13455;SDS011;6800;50.940;6.940;2022-07-01T10:56:37;2.38;;;1.40;;
13455;SDS011;6800;50.940;6.940;2022-07-01T11:00:42;3.10;;;1.15;;
13455;SDS011;6800;50.940;6.940;2022-07-01T11:04:44;2.58;;;1.60;;
13455;SDS011;6800;50.940;6.940;2022-07-01T11:08:48;2.55;;;1.30;;
13455;SDS011;6800;50.940;6.940;2022-07-01T11:12:51;2.45;;;1.80;;
13455;SDS011;6800;50.940;6.940;2022-07-01T11:16:51;1.95;;;1.25;;
13455;SDS011;6800;50.940;6.940;2022-07-01T11:20:52;2.95;;;1.40;;
13455;SDS011;6800;50.940;6.940;2022-07-01T11:24:53;3.80;;;1.50;;
13455;SDS011;6800;50.940;6.940;2022-07-01T11:28:54;3.00;;;1.40;;
13455;SDS011;6800;50.940;6.940;2022-07-01T11:32:55;3.75;;;1.80;;
13455;SDS011;6800;50.940;6.940;2022-07-01T11:36:58;1.85;;;1.40;;
13455;SDS011;6800;50.940;6.940;2022-07-01T11:41:18;1.85;;;1.60;;
13455;SDS011;6800;50.940;6.940;2022-07-01T11:45:24;3.85;;;1.70;;
13455;SDS011;6800;50.940;6.940;2022-07-01T11:49:26;3.60;;;1.60;;
13455;SDS011;6800;50.940;6.940;2022-07-01T11:53:27;2.58;;;1.40;;
13455;SDS011;6800;50.940;6.940;2022-07-01T11:57:28;2.65;;;1.42;;
13455;SDS011;6800;50.940;6.940;2022-07-01T12:01:32;3.03;;;1.30;;
13455;SDS011;6800;50.940;6.940;2022-07-01T12:05:34;3.55;;;1.70;;
13455;SDS011;6800;50.940;6.940;2022-07-01T12:09:34;4.15;;;1.70;;
13455;SDS011;6800;50.940;6.940;2022-07-01T12:13:35;3.28;;;2.17;;
13455;SDS011;6800;50.940;6.940;2022-07-01T12:17:36;2.67;;;1.90;;
13455;SDS011;6800;50.940;6.940;2022-07-01T12:25:59;1.73;;;1.10;;
13455;SDS011;6800;50.940;6.940;2022-07-01T12:29:59;2.20;;;1.80;;
13455;SDS011;6800;50.940;6.940;2022-07-01T12:34:00;2.97;;;1.33;;
13455;SDS011;6800;50.940;6.940;2022-07-01T12:38:01;2.13;;;1.20;;
13455;SDS011;6800;50.940;6.940;2022-07-01T12:42:06;1.77;;;0.80;;
13455;SDS011;6800;50.940;6.940;2022-07-01T12:46:06;1.70;;;1.25;;
13455;SDS011;6800;50.940;6.940;2022-07-01T12:54:26;1.73;;;1.00;;
13455;SDS011;6800;50.940;6.940;2022-07-01T12:58:29;4.50;;;1.00;;
13455;SDS011;6800;50.940;6.940;2022-07-01T13:02:29;2.45;;;0.90;;
13455;SDS011;6800;50.940;6.940;2022-07-01T13:06:29;3.92;;;1.30;;
13455;SDS011;6800;50.940;6.940;2022-07-01T13:10:30;1.30;;;0.80;;
13455;SDS011;6800;50.940;6.940;2022-07-01T13:14:30;0.93;;;0.60;;
13455;SDS011;6800;50.940;6.940;2022-07-01T13:18:30;2.58;;;0.90;;
13455;SDS011;6800;50.940;6.940;2022-07-01T13:22:31;2.30;;;0.80;;
13455;SDS011;6800;50.940;6.940;2022-07-01T13:26:31;2.92;;;0.90;;
13455;SDS011;6800;50.940;6.940;2022-07-01T13:30:31;1.20;;;0.60;;
13455;SDS011;6800;50.940;6.940;2022-07-01T13:34:32;1.17;;;0.47;;
13455;SDS011;6800;50.940;6.940;2022-07-01T13:38:33;1.85;;;0.85;;
13455;SDS011;6800;50.940;6.940;2022-07-01T13:42:35;1.50;;;0.90;;
13455;SDS011;6800;50.940;6.940;2022-07-01T13:46:35;1.25;;;0.45;;
13455;SDS011;6800;50.940;6.940;2022-07-01T13:50:38;1.35;;;0.60;;
13455;SDS011;6800;50.940;6.940;2022-07-01T13:54:38;2.03;;;0.40;;
13455;SDS011;6800;50.940;6.940;2022-07-01T13:58:38;2.47;;;0.68;;
13455;SDS011;6800;50.940;6.940;2022-07-01T14:02:39;3.55;;;0.57;;
13455;SDS011;6800;50.940;6.940;2022-07-01T14:06:39;2.90;;;0.70;;
13455;SDS011;6800;50.940;6.940;2022-07-01T14:10:43;1.48;;;0.65;;
13455;SDS011;6800;50.940;6.940;2022-07-01T14:14:44;1.75;;;0.40;;
13455;SDS011;6800;50.940;6.940;2022-07-01T14:18:44;2.78;;;0.70;;
13455;SDS011;6800;50.940;6.940;2022-07-01T14:22:44;1.83;;;0.60;;
13455;SDS011;6800;50.940;6.940;2022-07-01T14:26:45;1.42;;;1.00;;
13455;SDS011;6800;50.940;6.940;2022-07-01T14:30:45;2.13;;;0.95;;
13455;SDS011;6800;50.940;6.940;2022-07-01T14:34:47;1.77;;;0.70;;
13455;SDS011;6800;50.940;6.940;2022-07-01T14:38:47;2.63;;;0.70;;
13455;SDS011;6800;50.940;6.940;2022-07-01T14:42:48;1.77;;;0.47;;
13455;SDS011;6800;50.940;6.940;2022-07-01T14:46:48;1.67;;;0.73;;
13455;SDS011;6800;50.940;6.940;2022-07-01T14:50:49;3.22;;;0.73;;
13455;SDS011;6800;50.940;6.940;2022-07-01T14:54:50;3.38;;;1.02;;
13455;SDS011;6800;50.940;6.940;2022-07-01T14:58:51;1.92;;;0.65;;
13455;SDS011;6800;50.940;6.940;2022-07-01T15:02:51;1.92;;;0.65;;
13455;SDS011;6800;50.940;6.940;2022-07-01T15:06:52;1.55;;;0.50;;
13455;SDS011;6800;50.940;6.940;2022-07-01T15:10:52;1.58;;;0.80;;
13455;SDS011;6800;50.940;6.940;2022-07-01T15:15:02;2.30;;;0.77;;
13455;SDS011;6800;50.940;6.940;2022-07-01T15:19:03;2.42;;;0.80;;
13455;SDS011;6800;50.940;6.940;2022-07-01T15:23:04;4.05;;;1.08;;
13455;SDS011;6800;50.940;6.940;2022-07-01T15:27:06;1.85;;;0.90;;
13455;SDS011;6800;50.940;6.940;2022-07-01T15:31:06;2.22;;;0.90;;
13455;SDS011;6800;50.940;6.940;2022-07-01T15:35:08;2.80;;;1.30;;
13455;SDS011;6800;50.940;6.940;2022-07-01T15:39:09;3.33;;;1.48;;
13455;SDS011;6800;50.940;6.940;2022-07-01T15:43:09;3.25;;;1.10;;
13455;SDS011;6800;50.940;6.940;2022-07-01T15:47:13;2.72;;;1.05;;
13455;SDS011;6800;50.940;6.940;2022-07-01T15:51:31;3.33;;;1.50;;
13455;SDS011;6800;50.940;6.940;2022-07-01T15:55:32;3.17;;;1.20;;
13455;SDS011;6800;50.940;6.940;2022-07-01T15:59:32;1.58;;;0.90;;
13455;SDS011;6800;50.940;6.940;2022-07-01T16:03:33;2.85;;;0.70;;
13455;SDS011;6800;50.940;6.940;2022-07-01T16:07:33;1.95;;;0.80;;
13455;SDS011;6800;50.940;6.940;2022-07-01T16:11:36;2.95;;;1.38;;
13455;SDS011;6800;50.940;6.940;2022-07-01T16:15:37;1.85;;;0.68;;
13455;SDS011;6800;50.940;6.940;2022-07-01T16:19:37;1.73;;;0.70;;
13455;SDS011;6800;50.940;6.940;2022-07-01T16:23:41;2.70;;;0.95;;
13455;SDS011;6800;50.940;6.940;2022-07-01T16:27:42;3.85;;;1.50;;
13455;SDS011;6800;50.940;6.940;2022-07-01T16:31:43;1.85;;;0.70;;
13455;SDS011;6800;50.940;6.940;2022-07-01T16:35:58;2.67;;;0.80;;
13455;SDS011;6800;50.940;6.940;2022-07-01T16:40:06;2.10;;;0.60;;
13455;SDS011;6800;50.940;6.940;2022-07-01T16:44:13;2.65;;;0.98;;
13455;SDS011;6800;50.940;6.940;2022-07-01T16:48:19;4.22;;;1.00;;
13455;SDS011;6800;50.940;6.940;2022-07-01T16:52:30;5.30;;;1.15;;
13455;SDS011;6800;50.940;6.940;2022-07-01T16:56:36;2.13;;;0.95;;
13455;SDS011;6800;50.940;6.940;2022-07-01T17:00:42;3.50;;;1.25;;
13455;SDS011;6800;50.940;6.940;2022-07-01T17:04:46;2.17;;;0.77;;
13455;SDS011;6800;50.940;6.940;2022-07-01T17:08:48;0.95;;;0.68;;
13455;SDS011;6800;50.940;6.940;2022-07-01T17:12:49;2.58;;;0.93;;
13455;SDS011;6800;50.940;6.940;2022-07-01T17:16:52;0.82;;;0.50;;
13455;SDS011;6800;50.940;6.940;2022-07-01T17:20:54;0.93;;;0.50;;
13455;SDS011;6800;50.940;6.940;2022-07-01T17:29:36;4.85;;;0.90;;
13455;SDS011;6800;50.940;6.940;2022-07-01T17:33:48;1.25;;;0.77;;
13455;SDS011;6800;50.940;6.940;2022-07-01T17:37:53;1.60;;;0.70;;
13455;SDS011;6800;50.940;6.940;2022-07-01T17:41:57;2.25;;;0.63;;
13455;SDS011;6800;50.940;6.940;2022-07-01T17:45:59;2.05;;;0.68;;
13455;SDS011;6800;50.940;6.940;2022-07-01T17:50:02;3.63;;;1.45;;
13455;SDS011;6800;50.940;6.940;2022-07-01T17:54:03;3.15;;;1.42;;
13455;SDS011;6800;50.940;6.940;2022-07-01T17:58:04;1.40;;;0.90;;
13455;SDS011;6800;50.940;6.940;2022-07-01T18:02:04;1.42;;;0.68;;
13455;SDS011;6800;50.940;6.940;2022-07-01T18:06:05;2.15;;;0.80;;
13455;SDS011;6800;50.940;6.940;2022-07-01T18:10:06;3.65;;;0.80;;
13455;SDS011;6800;50.940;6.940;2022-07-01T18:18:17;2.10;;;0.80;;
13455;SDS011;6800;50.940;6.940;2022-07-01T18:22:42;2.80;;;1.02;;
13455;SDS011;6800;50.940;6.940;2022-07-01T18:26:45;1.63;;;0.93;;
13455;SDS011;6800;50.940;6.940;2022-07-01T18:30:50;1.42;;;0.80;;
13455;SDS011;6800;50.940;6.940;2022-07-01T18:34:58;1.88;;;1.23;;
13455;SDS011;6800;50.940;6.940;2022-07-01T18:39:02;2.47;;;1.00;;
13455;SDS011;6800;50.940;6.940;2022-07-01T18:43:06;1.95;;;0.90;;
13455;SDS011;6800;50.940;6.940;2022-07-01T18:47:07;2.33;;;0.95;;
13455;SDS011;6800;50.940;6.940;2022-07-01T18:51:08;2.30;;;1.00;;
13455;SDS011;6800;50.940;6.940;2022-07-01T18:55:08;3.30;;;1.20;;
13455;SDS011;6800;50.940;6.940;2022-07-01T18:59:09;1.52;;;0.65;;
13455;SDS011;6800;50.940;6.940;2022-07-01T19:03:09;2.58;;;1.58;;
13455;SDS011;6800;50.940;6.940;2022-07-01T19:07:10;1.23;;;1.13;;
13455;SDS011;6800;50.940;6.940;2022-07-01T19:11:11;2.63;;;1.27;;
13455;SDS011;6800;50.940;6.940;2022-07-01T19:15:11;2.40;;;0.93;;
13455;SDS011;6800;50.940;6.940;2022-07-01T19:19:14;2.17;;;1.15;;
13455;SDS011;6800;50.940;6.940;2022-07-01T19:23:14;2.03;;;1.40;;
13455;SDS011;6800;50.940;6.940;2022-07-01T19:27:15;2.70;;;1.27;;
13455;SDS011;6800;50.940;6.940;2022-07-01T19:31:15;2.47;;;1.30;;
13455;SDS011;6800;50.940;6.940;2022-07-01T19:35:15;3.78;;;1.90;;
13455;SDS011;6800;50.940;6.940;2022-07-01T19:39:16;2.78;;;1.85;;
13455;SDS011;6800;50.940;6.940;2022-07-01T19:43:16;2.47;;;1.17;;
13455;SDS011;6800;50.940;6.940;2022-07-01T19:47:16;3.50;;;1.10;;
13455;SDS011;6800;50.940;6.940;2022-07-01T19:51:17;2.05;;;1.45;;
13455;SDS011;6800;50.940;6.940;2022-07-01T19:55:17;2.35;;;1.50;;
13455;SDS011;6800;50.940;6.940;2022-07-01T19:59:18;2.78;;;1.65;;
13455;SDS011;6800;50.940;6.940;2022-07-01T20:03:18;3.05;;;1.48;;
13455;SDS011;6800;50.940;6.940;2022-07-01T20:07:19;4.45;;;1.90;;
13455;SDS011;6800;50.940;6.940;2022-07-01T20:11:19;5.05;;;1.90;;
13455;SDS011;6800;50.940;6.940;2022-07-01T20:15:20;2.75;;;1.42;;
13455;SDS011;6800;50.940;6.940;2022-07-01T20:19:20;3.55;;;2.00;;
13455;SDS011;6800;50.940;6.940;2022-07-01T20:23:20;2.88;;;2.08;;
13455;SDS011;6800;50.940;6.940;2022-07-01T20:27:21;3.25;;;2.00;;
13455;SDS011;6800;50.940;6.940;2022-07-01T20:31:22;3.40;;;1.90;;
13455;SDS011;6800;50.940;6.940;2022-07-01T20:35:23;3.45;;;1.92;;
13455;SDS011;6800;50.940;6.940;2022-07-01T20:39:24;6.80;;;2.22;;
13455;SDS011;6800;50.940;6.940;2022-07-01T20:43:24;4.95;;;1.80;;
13455;SDS011;6800;50.940;6.940;2022-07-01T20:47:25;5.22;;;2.65;;
13455;SDS011;6800;50.940;6.940;2022-07-01T20:51:28;6.07;;;2.45;;
13455;SDS011;6800;50.940;6.940;2022-07-01T20:55:28;5.80;;;2.40;;
13455;SDS011;6800;50.940;6.940;2022-07-01T20:59:29;5.82;;;2.10;;
13455;SDS011;6800;50.940;6.940;2022-07-01T21:03:29;5.47;;;2.67;;
13455;SDS011;6800;50.940;6.940;2022-07-01T21:07:29;5.47;;;2.80;;
13455;SDS011;6800;50.940;6.940;2022-07-01T21:11:30;3.95;;;3.10;;
13455;SDS011;6800;50.940;6.940;2022-07-01T21:15:30;6.07;;;3.05;;
13455;SDS011;6800;50.940;6.940;2022-07-01T21:19:30;3.13;;;1.58;;
13455;SDS011;6800;50.940;6.940;2022-07-01T21:23:31;3.50;;;2.42;;
13455;SDS011;6800;50.940;6.940;2022-07-01T21:27:31;5.25;;;3.60;;
13455;SDS011;6800;50.940;6.940;2022-07-01T21:31:32;12.40;;;9.32;;
13455;SDS011;6800;50.940;6.940;2022-07-01T21:35:32;5.63;;;3.40;;
13455;SDS011;6800;50.940;6.940;2022-07-01T21:39:33;3.55;;;2.10;;
13455;SDS011;6800;50.940;6.940;2022-07-01T21:43:35;4.78;;;2.03;;
13455;SDS011;6800;50.940;6.940;2022-07-01T21:47:36;3.97;;;1.85;;
13455;SDS011;6800;50.940;6.940;2022-07-01T21:51:37;3.08;;;2.38;;
13455;SDS011;6800;50.940;6.940;2022-07-01T21:55:38;5.35;;;2.35;;
13455;SDS011;6800;50.940;6.940;2022-07-01T21:59:39;3.40;;;2.13;;
13455;SDS011;6800;50.940;6.940;2022-07-01T22:03:42;4.25;;;2.47;;
13455;SDS011;6800;50.940;6.940;2022-07-01T22:07:44;4.53;;;3.42;;
13455;SDS011;6800;50.940;6.940;2022-07-01T22:11:46;4.35;;;2.95;;
13455;SDS011;6800;50.940;6.940;2022-07-01T22:15:50;2.55;;;1.90;;
13455;SDS011;6800;50.940;6.940;2022-07-01T22:19:51;4.28;;;1.73;;
13455;SDS011;6800;50.940;6.940;2022-07-01T22:23:53;2.88;;;1.75;;
13455;SDS011;6800;50.940;6.940;2022-07-01T22:27:55;4.60;;;2.58;;
13455;SDS011;6800;50.940;6.940;2022-07-01T22:31:56;6.85;;;4.90;;
13455;SDS011;6800;50.940;6.940;2022-07-01T22:35:57;3.78;;;2.78;;
13455;SDS011;6800;50.940;6.940;2022-07-01T22:39:59;5.03;;;2.75;;
13455;SDS011;6800;50.940;6.940;2022-07-01T22:44:01;4.53;;;2.47;;
13455;SDS011;6800;50.940;6.940;2022-07-01T22:48:02;2.75;;;2.10;;
13455;SDS011;6800;50.940;6.940;2022-07-01T22:56:28;4.25;;;2.00;;
13455;SDS011;6800;50.940;6.940;2022-07-01T23:00:29;3.70;;;2.28;;
13455;SDS011;6800;50.940;6.940;2022-07-01T23:04:33;3.70;;;2.30;;
13455;SDS011;6800;50.940;6.940;2022-07-01T23:08:40;4.05;;;2.25;;
13455;SDS011;6800;50.940;6.940;2022-07-01T23:13:02;3.70;;;2.30;;
13455;SDS011;6800;50.940;6.940;2022-07-01T23:17:04;4.07;;;1.93;;
13455;SDS011;6800;50.940;6.940;2022-07-01T23:21:05;5.85;;;1.67;;
13455;SDS011;6800;50.940;6.940;2022-07-01T23:25:07;3.70;;;3.13;;
13455;SDS011;6800;50.940;6.940;2022-07-01T23:29:08;4.72;;;2.60;;
13455;SDS011;6800;50.940;6.940;2022-07-01T23:33:09;6.47;;;2.53;;
13455;SDS011;6800;50.940;6.940;2022-07-01T23:37:10;3.50;;;2.20;;
13455;SDS011;6800;50.940;6.940;2022-07-01T23:41:12;4.47;;;2.70;;
13455;SDS011;6800;50.940;6.940;2022-07-01T23:45:15;3.85;;;2.75;;
13455;SDS011;6800;50.940;6.940;2022-07-01T23:49:15;7.33;;;3.27;;
13455;SDS011;6800;50.940;6.940;2022-07-01T23:53:16;4.77;;;3.50;;
13455;SDS011;6800;50.940;6.940;2022-07-01T23:57:16;6.70;;;4.82;;
